<?xml version="1.0" encoding="UTF-8" standalone="no" ?>
<gpx xmlns="http://www.topografix.com/GPX/1/1" xmlns:xsi="http://www.w3.org/2001/XMLSchema-instance" xsi:schemaLocation="http://www.topografix.com/GPX/1/1 http://www.topografix.com/GPX/1/1/gpx.xsd" version="1.1" creator="VisuGPX - https://www.visugpx.com">
  <metadata>
    <name>Sortie Moto</name>
  </metadata>
  <trk>
    <name><![CDATA[Journal actif: 2020-05-08 20:28]]></name>
    <trkseg>
      <trkpt lat="46.06758" lon="6.30798">
        <ele>582.7</ele>
        <time>2020-05-08T18:28:06Z</time>
      </trkpt>
      <trkpt lat="46.0677" lon="6.30789">
        <ele>582.7</ele>
        <time>2020-05-08T18:28:07Z</time>
      </trkpt>
      <trkpt lat="46.06796" lon="6.30748">
        <ele>582.22</ele>
        <time>2020-05-08T18:28:13Z</time>
      </trkpt>
      <trkpt lat="46.06795" lon="6.30744">
        <ele>582.7</ele>
        <time>2020-05-08T18:28:16Z</time>
      </trkpt>
      <trkpt lat="46.06793" lon="6.30738">
        <ele>582.7</ele>
        <time>2020-05-08T18:28:17Z</time>
      </trkpt>
      <trkpt lat="46.06791" lon="6.30726">
        <ele>583.18</ele>
        <time>2020-05-08T18:28:18Z</time>
      </trkpt>
      <trkpt lat="46.06785" lon="6.30688">
        <ele>584.14</ele>
        <time>2020-05-08T18:28:20Z</time>
      </trkpt>
      <trkpt lat="46.06784" lon="6.30668">
        <ele>584.62</ele>
        <time>2020-05-08T18:28:21Z</time>
      </trkpt>
      <trkpt lat="46.06784" lon="6.30648">
        <ele>586.06</ele>
        <time>2020-05-08T18:28:22Z</time>
      </trkpt>
      <trkpt lat="46.06783" lon="6.30629">
        <ele>587.02</ele>
        <time>2020-05-08T18:28:23Z</time>
      </trkpt>
      <trkpt lat="46.06784" lon="6.30608">
        <ele>588.46</ele>
        <time>2020-05-08T18:28:24Z</time>
      </trkpt>
      <trkpt lat="46.06788" lon="6.30589">
        <ele>589.43</ele>
        <time>2020-05-08T18:28:25Z</time>
      </trkpt>
      <trkpt lat="46.06793" lon="6.3057">
        <ele>589.91</ele>
        <time>2020-05-08T18:28:26Z</time>
      </trkpt>
      <trkpt lat="46.06798" lon="6.30552">
        <ele>590.87</ele>
        <time>2020-05-08T18:28:27Z</time>
      </trkpt>
      <trkpt lat="46.06804" lon="6.30535">
        <ele>591.83</ele>
        <time>2020-05-08T18:28:28Z</time>
      </trkpt>
      <trkpt lat="46.06814" lon="6.30507">
        <ele>593.27</ele>
        <time>2020-05-08T18:28:30Z</time>
      </trkpt>
      <trkpt lat="46.06818" lon="6.30497">
        <ele>594.23</ele>
        <time>2020-05-08T18:28:31Z</time>
      </trkpt>
      <trkpt lat="46.06826" lon="6.30472">
        <ele>596.15</ele>
        <time>2020-05-08T18:28:34Z</time>
      </trkpt>
      <trkpt lat="46.06829" lon="6.30464">
        <ele>597.12</ele>
        <time>2020-05-08T18:28:35Z</time>
      </trkpt>
      <trkpt lat="46.06832" lon="6.30456">
        <ele>597.6</ele>
        <time>2020-05-08T18:28:36Z</time>
      </trkpt>
      <trkpt lat="46.06838" lon="6.30439">
        <ele>599.04</ele>
        <time>2020-05-08T18:28:38Z</time>
      </trkpt>
      <trkpt lat="46.06842" lon="6.30427">
        <ele>599.52</ele>
        <time>2020-05-08T18:28:39Z</time>
      </trkpt>
      <trkpt lat="46.06858" lon="6.30354">
        <ele>597.6</ele>
        <time>2020-05-08T18:28:44Z</time>
      </trkpt>
      <trkpt lat="46.06859" lon="6.30338">
        <ele>597.6</ele>
        <time>2020-05-08T18:28:45Z</time>
      </trkpt>
      <trkpt lat="46.0686" lon="6.30306">
        <ele>597.12</ele>
        <time>2020-05-08T18:28:47Z</time>
      </trkpt>
      <trkpt lat="46.06865" lon="6.30246">
        <ele>587.5</ele>
        <time>2020-05-08T18:28:52Z</time>
      </trkpt>
      <trkpt lat="46.06867" lon="6.30239">
        <ele>586.06</ele>
        <time>2020-05-08T18:28:53Z</time>
      </trkpt>
      <trkpt lat="46.06871" lon="6.30233">
        <ele>585.1</ele>
        <time>2020-05-08T18:28:54Z</time>
      </trkpt>
      <trkpt lat="46.06885" lon="6.30233">
        <ele>584.62</ele>
        <time>2020-05-08T18:28:55Z</time>
      </trkpt>
      <trkpt lat="46.06891" lon="6.3023">
        <ele>584.14</ele>
        <time>2020-05-08T18:28:56Z</time>
      </trkpt>
      <trkpt lat="46.06905" lon="6.30223">
        <ele>583.66</ele>
        <time>2020-05-08T18:28:57Z</time>
      </trkpt>
      <trkpt lat="46.06917" lon="6.30216">
        <ele>583.18</ele>
        <time>2020-05-08T18:28:58Z</time>
      </trkpt>
      <trkpt lat="46.06964" lon="6.30183">
        <ele>582.7</ele>
        <time>2020-05-08T18:29:01Z</time>
      </trkpt>
      <trkpt lat="46.07041" lon="6.30081">
        <ele>584.14</ele>
        <time>2020-05-08T18:29:08Z</time>
      </trkpt>
      <trkpt lat="46.07048" lon="6.30071">
        <ele>584.14</ele>
        <time>2020-05-08T18:29:09Z</time>
      </trkpt>
      <trkpt lat="46.07054" lon="6.30062">
        <ele>584.62</ele>
        <time>2020-05-08T18:29:10Z</time>
      </trkpt>
      <trkpt lat="46.07059" lon="6.30058">
        <ele>586.54</ele>
        <time>2020-05-08T18:29:11Z</time>
      </trkpt>
      <trkpt lat="46.07065" lon="6.30054">
        <ele>587.98</ele>
        <time>2020-05-08T18:29:12Z</time>
      </trkpt>
      <trkpt lat="46.07078" lon="6.30057">
        <ele>589.43</ele>
        <time>2020-05-08T18:29:13Z</time>
      </trkpt>
      <trkpt lat="46.07078" lon="6.30057">
        <ele>590.87</ele>
        <time>2020-05-08T18:29:14Z</time>
      </trkpt>
      <trkpt lat="46.07088" lon="6.30058">
        <ele>591.35</ele>
        <time>2020-05-08T18:29:15Z</time>
      </trkpt>
      <trkpt lat="46.07095" lon="6.30042">
        <ele>592.79</ele>
        <time>2020-05-08T18:29:16Z</time>
      </trkpt>
      <trkpt lat="46.07102" lon="6.30037">
        <ele>593.75</ele>
        <time>2020-05-08T18:29:17Z</time>
      </trkpt>
      <trkpt lat="46.07128" lon="6.30015">
        <ele>600</ele>
        <time>2020-05-08T18:29:19Z</time>
      </trkpt>
      <trkpt lat="46.07147" lon="6.3">
        <ele>613.94</ele>
        <time>2020-05-08T18:29:21Z</time>
      </trkpt>
      <trkpt lat="46.07158" lon="6.2999">
        <ele>615.86</ele>
        <time>2020-05-08T18:29:22Z</time>
      </trkpt>
      <trkpt lat="46.0717" lon="6.29981">
        <ele>615.38</ele>
        <time>2020-05-08T18:29:23Z</time>
      </trkpt>
      <trkpt lat="46.07287" lon="6.29886">
        <ele>601.92</ele>
        <time>2020-05-08T18:29:33Z</time>
      </trkpt>
      <trkpt lat="46.07333" lon="6.2985">
        <ele>595.19</ele>
        <time>2020-05-08T18:29:39Z</time>
      </trkpt>
      <trkpt lat="46.07393" lon="6.29806">
        <ele>594.71</ele>
        <time>2020-05-08T18:29:44Z</time>
      </trkpt>
      <trkpt lat="46.07529" lon="6.29736">
        <ele>590.87</ele>
        <time>2020-05-08T18:29:53Z</time>
      </trkpt>
      <trkpt lat="46.07544" lon="6.29737">
        <ele>590.39</ele>
        <time>2020-05-08T18:29:54Z</time>
      </trkpt>
      <trkpt lat="46.07559" lon="6.29737">
        <ele>590.39</ele>
        <time>2020-05-08T18:29:55Z</time>
      </trkpt>
      <trkpt lat="46.07592" lon="6.29749">
        <ele>590.39</ele>
        <time>2020-05-08T18:29:57Z</time>
      </trkpt>
      <trkpt lat="46.0761" lon="6.29757">
        <ele>590.39</ele>
        <time>2020-05-08T18:29:58Z</time>
      </trkpt>
      <trkpt lat="46.07625" lon="6.29761">
        <ele>589.91</ele>
        <time>2020-05-08T18:29:59Z</time>
      </trkpt>
      <trkpt lat="46.07642" lon="6.29761">
        <ele>588.95</ele>
        <time>2020-05-08T18:30:00Z</time>
      </trkpt>
      <trkpt lat="46.07659" lon="6.29761">
        <ele>587.98</ele>
        <time>2020-05-08T18:30:01Z</time>
      </trkpt>
      <trkpt lat="46.07676" lon="6.29753">
        <ele>587.02</ele>
        <time>2020-05-08T18:30:02Z</time>
      </trkpt>
      <trkpt lat="46.07694" lon="6.29742">
        <ele>585.58</ele>
        <time>2020-05-08T18:30:03Z</time>
      </trkpt>
      <trkpt lat="46.07712" lon="6.2973">
        <ele>584.62</ele>
        <time>2020-05-08T18:30:04Z</time>
      </trkpt>
      <trkpt lat="46.07748" lon="6.29707">
        <ele>583.18</ele>
        <time>2020-05-08T18:30:06Z</time>
      </trkpt>
      <trkpt lat="46.07764" lon="6.29696">
        <ele>582.7</ele>
        <time>2020-05-08T18:30:07Z</time>
      </trkpt>
      <trkpt lat="46.078" lon="6.29663">
        <ele>582.7</ele>
        <time>2020-05-08T18:30:10Z</time>
      </trkpt>
      <trkpt lat="46.07808" lon="6.29654">
        <ele>582.7</ele>
        <time>2020-05-08T18:30:11Z</time>
      </trkpt>
      <trkpt lat="46.07816" lon="6.29643">
        <ele>583.18</ele>
        <time>2020-05-08T18:30:12Z</time>
      </trkpt>
      <trkpt lat="46.07819" lon="6.29637">
        <ele>583.18</ele>
        <time>2020-05-08T18:30:13Z</time>
      </trkpt>
      <trkpt lat="46.07815" lon="6.29622">
        <ele>583.18</ele>
        <time>2020-05-08T18:30:14Z</time>
      </trkpt>
      <trkpt lat="46.0781" lon="6.29618">
        <ele>583.18</ele>
        <time>2020-05-08T18:30:15Z</time>
      </trkpt>
      <trkpt lat="46.07806" lon="6.29615">
        <ele>583.66</ele>
        <time>2020-05-08T18:30:16Z</time>
      </trkpt>
      <trkpt lat="46.07799" lon="6.2962">
        <ele>583.18</ele>
        <time>2020-05-08T18:30:17Z</time>
      </trkpt>
      <trkpt lat="46.07792" lon="6.29624">
        <ele>583.18</ele>
        <time>2020-05-08T18:30:18Z</time>
      </trkpt>
      <trkpt lat="46.07783" lon="6.29632">
        <ele>582.7</ele>
        <time>2020-05-08T18:30:19Z</time>
      </trkpt>
      <trkpt lat="46.07763" lon="6.29647">
        <ele>581.73</ele>
        <time>2020-05-08T18:30:21Z</time>
      </trkpt>
      <trkpt lat="46.07756" lon="6.29652">
        <ele>581.73</ele>
        <time>2020-05-08T18:30:22Z</time>
      </trkpt>
      <trkpt lat="46.07745" lon="6.29646">
        <ele>581.73</ele>
        <time>2020-05-08T18:30:23Z</time>
      </trkpt>
      <trkpt lat="46.07736" lon="6.29642">
        <ele>581.25</ele>
        <time>2020-05-08T18:30:24Z</time>
      </trkpt>
      <trkpt lat="46.07728" lon="6.29638">
        <ele>581.25</ele>
        <time>2020-05-08T18:30:25Z</time>
      </trkpt>
      <trkpt lat="46.07719" lon="6.29626">
        <ele>581.73</ele>
        <time>2020-05-08T18:30:26Z</time>
      </trkpt>
      <trkpt lat="46.07714" lon="6.29609">
        <ele>582.22</ele>
        <time>2020-05-08T18:30:27Z</time>
      </trkpt>
      <trkpt lat="46.07706" lon="6.29587">
        <ele>582.7</ele>
        <time>2020-05-08T18:30:28Z</time>
      </trkpt>
      <trkpt lat="46.07655" lon="6.29443">
        <ele>587.02</ele>
        <time>2020-05-08T18:30:32Z</time>
      </trkpt>
      <trkpt lat="46.07565" lon="6.29261">
        <ele>597.6</ele>
        <time>2020-05-08T18:30:37Z</time>
      </trkpt>
      <trkpt lat="46.07492" lon="6.29108">
        <ele>607.69</ele>
        <time>2020-05-08T18:30:42Z</time>
      </trkpt>
      <trkpt lat="46.07469" lon="6.29015">
        <ele>612.02</ele>
        <time>2020-05-08T18:30:45Z</time>
      </trkpt>
      <trkpt lat="46.07459" lon="6.28986">
        <ele>613.46</ele>
        <time>2020-05-08T18:30:46Z</time>
      </trkpt>
      <trkpt lat="46.07446" lon="6.2896">
        <ele>614.9</ele>
        <time>2020-05-08T18:30:47Z</time>
      </trkpt>
      <trkpt lat="46.0743" lon="6.28935">
        <ele>615.86</ele>
        <time>2020-05-08T18:30:48Z</time>
      </trkpt>
      <trkpt lat="46.07414" lon="6.28911">
        <ele>617.3</ele>
        <time>2020-05-08T18:30:49Z</time>
      </trkpt>
      <trkpt lat="46.07395" lon="6.28889">
        <ele>618.26</ele>
        <time>2020-05-08T18:30:50Z</time>
      </trkpt>
      <trkpt lat="46.07374" lon="6.28872">
        <ele>619.71</ele>
        <time>2020-05-08T18:30:51Z</time>
      </trkpt>
      <trkpt lat="46.07353" lon="6.28858">
        <ele>621.15</ele>
        <time>2020-05-08T18:30:52Z</time>
      </trkpt>
      <trkpt lat="46.07332" lon="6.28848">
        <ele>622.59</ele>
        <time>2020-05-08T18:30:53Z</time>
      </trkpt>
      <trkpt lat="46.0731" lon="6.2884">
        <ele>624.03</ele>
        <time>2020-05-08T18:30:54Z</time>
      </trkpt>
      <trkpt lat="46.07287" lon="6.28835">
        <ele>625.47</ele>
        <time>2020-05-08T18:30:55Z</time>
      </trkpt>
      <trkpt lat="46.07264" lon="6.28831">
        <ele>626.92</ele>
        <time>2020-05-08T18:30:56Z</time>
      </trkpt>
      <trkpt lat="46.07078" lon="6.28814">
        <ele>637.97</ele>
        <time>2020-05-08T18:31:04Z</time>
      </trkpt>
      <trkpt lat="46.07016" lon="6.28793">
        <ele>641.82</ele>
        <time>2020-05-08T18:31:07Z</time>
      </trkpt>
      <trkpt lat="46.06996" lon="6.28779">
        <ele>642.78</ele>
        <time>2020-05-08T18:31:08Z</time>
      </trkpt>
      <trkpt lat="46.06836" lon="6.28682">
        <ele>654.8</ele>
        <time>2020-05-08T18:31:15Z</time>
      </trkpt>
      <trkpt lat="46.06813" lon="6.28676">
        <ele>655.76</ele>
        <time>2020-05-08T18:31:16Z</time>
      </trkpt>
      <trkpt lat="46.06789" lon="6.28672">
        <ele>657.2</ele>
        <time>2020-05-08T18:31:17Z</time>
      </trkpt>
      <trkpt lat="46.06765" lon="6.28677">
        <ele>659.12</ele>
        <time>2020-05-08T18:31:18Z</time>
      </trkpt>
      <trkpt lat="46.06741" lon="6.28682">
        <ele>660.56</ele>
        <time>2020-05-08T18:31:19Z</time>
      </trkpt>
      <trkpt lat="46.06718" lon="6.2869">
        <ele>661.52</ele>
        <time>2020-05-08T18:31:20Z</time>
      </trkpt>
      <trkpt lat="46.06696" lon="6.28704">
        <ele>662.97</ele>
        <time>2020-05-08T18:31:21Z</time>
      </trkpt>
      <trkpt lat="46.06672" lon="6.28718">
        <ele>663.93</ele>
        <time>2020-05-08T18:31:22Z</time>
      </trkpt>
      <trkpt lat="46.06509" lon="6.28816">
        <ele>674.02</ele>
        <time>2020-05-08T18:31:30Z</time>
      </trkpt>
      <trkpt lat="46.06481" lon="6.28826">
        <ele>676.42</ele>
        <time>2020-05-08T18:31:32Z</time>
      </trkpt>
      <trkpt lat="46.06469" lon="6.28829">
        <ele>677.39</ele>
        <time>2020-05-08T18:31:33Z</time>
      </trkpt>
      <trkpt lat="46.06452" lon="6.28819">
        <ele>678.35</ele>
        <time>2020-05-08T18:31:34Z</time>
      </trkpt>
      <trkpt lat="46.06448" lon="6.28818">
        <ele>678.83</ele>
        <time>2020-05-08T18:31:35Z</time>
      </trkpt>
      <trkpt lat="46.06438" lon="6.28817">
        <ele>679.79</ele>
        <time>2020-05-08T18:31:36Z</time>
      </trkpt>
      <trkpt lat="46.0643" lon="6.28824">
        <ele>680.27</ele>
        <time>2020-05-08T18:31:37Z</time>
      </trkpt>
      <trkpt lat="46.06428" lon="6.28826">
        <ele>680.75</ele>
        <time>2020-05-08T18:31:38Z</time>
      </trkpt>
      <trkpt lat="46.06407" lon="6.2884">
        <ele>681.23</ele>
        <time>2020-05-08T18:31:39Z</time>
      </trkpt>
      <trkpt lat="46.06392" lon="6.28843">
        <ele>681.71</ele>
        <time>2020-05-08T18:31:40Z</time>
      </trkpt>
      <trkpt lat="46.06373" lon="6.28847">
        <ele>682.67</ele>
        <time>2020-05-08T18:31:41Z</time>
      </trkpt>
      <trkpt lat="46.06259" lon="6.28877">
        <ele>687.48</ele>
        <time>2020-05-08T18:31:45Z</time>
      </trkpt>
      <trkpt lat="46.06063" lon="6.28944">
        <ele>696.61</ele>
        <time>2020-05-08T18:31:50Z</time>
      </trkpt>
      <trkpt lat="46.0593" lon="6.28988">
        <ele>704.78</ele>
        <time>2020-05-08T18:31:54Z</time>
      </trkpt>
      <trkpt lat="46.05792" lon="6.29006">
        <ele>712.47</ele>
        <time>2020-05-08T18:31:59Z</time>
      </trkpt>
      <trkpt lat="46.05766" lon="6.28999">
        <ele>713.44</ele>
        <time>2020-05-08T18:32:00Z</time>
      </trkpt>
      <trkpt lat="46.0574" lon="6.28991">
        <ele>714.88</ele>
        <time>2020-05-08T18:32:01Z</time>
      </trkpt>
      <trkpt lat="46.05716" lon="6.28976">
        <ele>716.32</ele>
        <time>2020-05-08T18:32:02Z</time>
      </trkpt>
      <trkpt lat="46.05693" lon="6.2896">
        <ele>717.76</ele>
        <time>2020-05-08T18:32:03Z</time>
      </trkpt>
      <trkpt lat="46.05671" lon="6.28942">
        <ele>719.2</ele>
        <time>2020-05-08T18:32:04Z</time>
      </trkpt>
      <trkpt lat="46.05651" lon="6.2892">
        <ele>720.65</ele>
        <time>2020-05-08T18:32:05Z</time>
      </trkpt>
      <trkpt lat="46.05634" lon="6.28893">
        <ele>722.57</ele>
        <time>2020-05-08T18:32:06Z</time>
      </trkpt>
      <trkpt lat="46.05617" lon="6.28866">
        <ele>724.01</ele>
        <time>2020-05-08T18:32:07Z</time>
      </trkpt>
      <trkpt lat="46.05602" lon="6.28837">
        <ele>725.93</ele>
        <time>2020-05-08T18:32:08Z</time>
      </trkpt>
      <trkpt lat="46.05589" lon="6.28806">
        <ele>727.37</ele>
        <time>2020-05-08T18:32:09Z</time>
      </trkpt>
      <trkpt lat="46.05576" lon="6.28773">
        <ele>729.3</ele>
        <time>2020-05-08T18:32:10Z</time>
      </trkpt>
      <trkpt lat="46.05452" lon="6.28416">
        <ele>744.68</ele>
        <time>2020-05-08T18:32:21Z</time>
      </trkpt>
      <trkpt lat="46.05333" lon="6.28076">
        <ele>754.77</ele>
        <time>2020-05-08T18:32:31Z</time>
      </trkpt>
      <trkpt lat="46.05189" lon="6.27656">
        <ele>761.02</ele>
        <time>2020-05-08T18:32:43Z</time>
      </trkpt>
      <trkpt lat="46.05132" lon="6.27357">
        <ele>766.31</ele>
        <time>2020-05-08T18:32:51Z</time>
      </trkpt>
      <trkpt lat="46.05131" lon="6.27055">
        <ele>774</ele>
        <time>2020-05-08T18:32:59Z</time>
      </trkpt>
      <trkpt lat="46.05147" lon="6.26798">
        <ele>777.84</ele>
        <time>2020-05-08T18:33:06Z</time>
      </trkpt>
      <trkpt lat="46.05143" lon="6.26764">
        <ele>777.84</ele>
        <time>2020-05-08T18:33:07Z</time>
      </trkpt>
      <trkpt lat="46.05138" lon="6.2673">
        <ele>778.32</ele>
        <time>2020-05-08T18:33:08Z</time>
      </trkpt>
      <trkpt lat="46.05129" lon="6.26697">
        <ele>778.32</ele>
        <time>2020-05-08T18:33:09Z</time>
      </trkpt>
      <trkpt lat="46.0512" lon="6.26663">
        <ele>778.81</ele>
        <time>2020-05-08T18:33:10Z</time>
      </trkpt>
      <trkpt lat="46.05109" lon="6.26632">
        <ele>779.29</ele>
        <time>2020-05-08T18:33:11Z</time>
      </trkpt>
      <trkpt lat="46.05095" lon="6.26603">
        <ele>780.25</ele>
        <time>2020-05-08T18:33:12Z</time>
      </trkpt>
      <trkpt lat="46.0508" lon="6.26574">
        <ele>780.73</ele>
        <time>2020-05-08T18:33:13Z</time>
      </trkpt>
      <trkpt lat="46.05062" lon="6.26548">
        <ele>781.69</ele>
        <time>2020-05-08T18:33:14Z</time>
      </trkpt>
      <trkpt lat="46.05042" lon="6.26525">
        <ele>782.65</ele>
        <time>2020-05-08T18:33:15Z</time>
      </trkpt>
      <trkpt lat="46.05021" lon="6.26504">
        <ele>783.61</ele>
        <time>2020-05-08T18:33:16Z</time>
      </trkpt>
      <trkpt lat="46.05" lon="6.26483">
        <ele>785.05</ele>
        <time>2020-05-08T18:33:17Z</time>
      </trkpt>
      <trkpt lat="46.04893" lon="6.26388">
        <ele>791.3</ele>
        <time>2020-05-08T18:33:22Z</time>
      </trkpt>
      <trkpt lat="46.04874" lon="6.26366">
        <ele>792.26</ele>
        <time>2020-05-08T18:33:23Z</time>
      </trkpt>
      <trkpt lat="46.04858" lon="6.2634">
        <ele>793.22</ele>
        <time>2020-05-08T18:33:24Z</time>
      </trkpt>
      <trkpt lat="46.04843" lon="6.26313">
        <ele>794.19</ele>
        <time>2020-05-08T18:33:25Z</time>
      </trkpt>
      <trkpt lat="46.04827" lon="6.26285">
        <ele>795.63</ele>
        <time>2020-05-08T18:33:26Z</time>
      </trkpt>
      <trkpt lat="46.0471" lon="6.26041">
        <ele>803.32</ele>
        <time>2020-05-08T18:33:35Z</time>
      </trkpt>
      <trkpt lat="46.04617" lon="6.2585">
        <ele>805.24</ele>
        <time>2020-05-08T18:33:44Z</time>
      </trkpt>
      <trkpt lat="46.0454" lon="6.25692">
        <ele>806.2</ele>
        <time>2020-05-08T18:33:50Z</time>
      </trkpt>
      <trkpt lat="46.04446" lon="6.25475">
        <ele>806.2</ele>
        <time>2020-05-08T18:33:57Z</time>
      </trkpt>
      <trkpt lat="46.04356" lon="6.25113">
        <ele>799.95</ele>
        <time>2020-05-08T18:34:07Z</time>
      </trkpt>
      <trkpt lat="46.04342" lon="6.25079">
        <ele>798.03</ele>
        <time>2020-05-08T18:34:08Z</time>
      </trkpt>
      <trkpt lat="46.04326" lon="6.25047">
        <ele>796.59</ele>
        <time>2020-05-08T18:34:09Z</time>
      </trkpt>
      <trkpt lat="46.0431" lon="6.25015">
        <ele>795.15</ele>
        <time>2020-05-08T18:34:10Z</time>
      </trkpt>
      <trkpt lat="46.04152" lon="6.24798">
        <ele>787.94</ele>
        <time>2020-05-08T18:34:18Z</time>
      </trkpt>
      <trkpt lat="46.04133" lon="6.24777">
        <ele>788.42</ele>
        <time>2020-05-08T18:34:19Z</time>
      </trkpt>
      <trkpt lat="46.04114" lon="6.24755">
        <ele>788.9</ele>
        <time>2020-05-08T18:34:20Z</time>
      </trkpt>
      <trkpt lat="46.04092" lon="6.24741">
        <ele>789.86</ele>
        <time>2020-05-08T18:34:21Z</time>
      </trkpt>
      <trkpt lat="46.04069" lon="6.24727">
        <ele>790.82</ele>
        <time>2020-05-08T18:34:22Z</time>
      </trkpt>
      <trkpt lat="46.04044" lon="6.24718">
        <ele>791.3</ele>
        <time>2020-05-08T18:34:23Z</time>
      </trkpt>
      <trkpt lat="46.04019" lon="6.24711">
        <ele>791.78</ele>
        <time>2020-05-08T18:34:24Z</time>
      </trkpt>
      <trkpt lat="46.03948" lon="6.2468">
        <ele>793.22</ele>
        <time>2020-05-08T18:34:27Z</time>
      </trkpt>
      <trkpt lat="46.03926" lon="6.24662">
        <ele>793.22</ele>
        <time>2020-05-08T18:34:28Z</time>
      </trkpt>
      <trkpt lat="46.03905" lon="6.24642">
        <ele>792.74</ele>
        <time>2020-05-08T18:34:29Z</time>
      </trkpt>
      <trkpt lat="46.03886" lon="6.24619">
        <ele>792.26</ele>
        <time>2020-05-08T18:34:30Z</time>
      </trkpt>
      <trkpt lat="46.03868" lon="6.24592">
        <ele>792.26</ele>
        <time>2020-05-08T18:34:31Z</time>
      </trkpt>
      <trkpt lat="46.03854" lon="6.24562">
        <ele>791.3</ele>
        <time>2020-05-08T18:34:32Z</time>
      </trkpt>
      <trkpt lat="46.03842" lon="6.2453">
        <ele>790.82</ele>
        <time>2020-05-08T18:34:33Z</time>
      </trkpt>
      <trkpt lat="46.03834" lon="6.24494">
        <ele>789.86</ele>
        <time>2020-05-08T18:34:34Z</time>
      </trkpt>
      <trkpt lat="46.03825" lon="6.24457">
        <ele>788.9</ele>
        <time>2020-05-08T18:34:35Z</time>
      </trkpt>
      <trkpt lat="46.03816" lon="6.2442">
        <ele>787.94</ele>
        <time>2020-05-08T18:34:36Z</time>
      </trkpt>
      <trkpt lat="46.03775" lon="6.24249">
        <ele>781.21</ele>
        <time>2020-05-08T18:34:41Z</time>
      </trkpt>
      <trkpt lat="46.03764" lon="6.24219">
        <ele>779.77</ele>
        <time>2020-05-08T18:34:42Z</time>
      </trkpt>
      <trkpt lat="46.0375" lon="6.24193">
        <ele>778.32</ele>
        <time>2020-05-08T18:34:43Z</time>
      </trkpt>
      <trkpt lat="46.03733" lon="6.24169">
        <ele>776.88</ele>
        <time>2020-05-08T18:34:44Z</time>
      </trkpt>
      <trkpt lat="46.03717" lon="6.24145">
        <ele>775.44</ele>
        <time>2020-05-08T18:34:45Z</time>
      </trkpt>
      <trkpt lat="46.03701" lon="6.24123">
        <ele>773.52</ele>
        <time>2020-05-08T18:34:46Z</time>
      </trkpt>
      <trkpt lat="46.03683" lon="6.24106">
        <ele>772.08</ele>
        <time>2020-05-08T18:34:47Z</time>
      </trkpt>
      <trkpt lat="46.03665" lon="6.24089">
        <ele>770.63</ele>
        <time>2020-05-08T18:34:48Z</time>
      </trkpt>
      <trkpt lat="46.03646" lon="6.24079">
        <ele>769.19</ele>
        <time>2020-05-08T18:34:49Z</time>
      </trkpt>
      <trkpt lat="46.03626" lon="6.24074">
        <ele>768.23</ele>
        <time>2020-05-08T18:34:50Z</time>
      </trkpt>
      <trkpt lat="46.03606" lon="6.24072">
        <ele>767.27</ele>
        <time>2020-05-08T18:34:51Z</time>
      </trkpt>
      <trkpt lat="46.03587" lon="6.24073">
        <ele>766.31</ele>
        <time>2020-05-08T18:34:52Z</time>
      </trkpt>
      <trkpt lat="46.03568" lon="6.24079">
        <ele>765.35</ele>
        <time>2020-05-08T18:34:53Z</time>
      </trkpt>
      <trkpt lat="46.0355" lon="6.24088">
        <ele>764.39</ele>
        <time>2020-05-08T18:34:54Z</time>
      </trkpt>
      <trkpt lat="46.03533" lon="6.24101">
        <ele>763.9</ele>
        <time>2020-05-08T18:34:55Z</time>
      </trkpt>
      <trkpt lat="46.0352" lon="6.2412">
        <ele>762.94</ele>
        <time>2020-05-08T18:34:56Z</time>
      </trkpt>
      <trkpt lat="46.03508" lon="6.24141">
        <ele>762.46</ele>
        <time>2020-05-08T18:34:57Z</time>
      </trkpt>
      <trkpt lat="46.03495" lon="6.24162">
        <ele>761.5</ele>
        <time>2020-05-08T18:34:58Z</time>
      </trkpt>
      <trkpt lat="46.03483" lon="6.24182">
        <ele>760.54</ele>
        <time>2020-05-08T18:34:59Z</time>
      </trkpt>
      <trkpt lat="46.03458" lon="6.2422">
        <ele>758.62</ele>
        <time>2020-05-08T18:35:01Z</time>
      </trkpt>
      <trkpt lat="46.03445" lon="6.24237">
        <ele>757.66</ele>
        <time>2020-05-08T18:35:02Z</time>
      </trkpt>
      <trkpt lat="46.03429" lon="6.24247">
        <ele>756.21</ele>
        <time>2020-05-08T18:35:03Z</time>
      </trkpt>
      <trkpt lat="46.03411" lon="6.24256">
        <ele>755.25</ele>
        <time>2020-05-08T18:35:04Z</time>
      </trkpt>
      <trkpt lat="46.03393" lon="6.24262">
        <ele>754.29</ele>
        <time>2020-05-08T18:35:05Z</time>
      </trkpt>
      <trkpt lat="46.03375" lon="6.24261">
        <ele>753.33</ele>
        <time>2020-05-08T18:35:06Z</time>
      </trkpt>
      <trkpt lat="46.03357" lon="6.24256">
        <ele>752.37</ele>
        <time>2020-05-08T18:35:07Z</time>
      </trkpt>
      <trkpt lat="46.03341" lon="6.24246">
        <ele>751.89</ele>
        <time>2020-05-08T18:35:08Z</time>
      </trkpt>
      <trkpt lat="46.03324" lon="6.24232">
        <ele>750.93</ele>
        <time>2020-05-08T18:35:09Z</time>
      </trkpt>
      <trkpt lat="46.03307" lon="6.24217">
        <ele>750.45</ele>
        <time>2020-05-08T18:35:10Z</time>
      </trkpt>
      <trkpt lat="46.0329" lon="6.24198">
        <ele>749.97</ele>
        <time>2020-05-08T18:35:11Z</time>
      </trkpt>
      <trkpt lat="46.03275" lon="6.24174">
        <ele>749.97</ele>
        <time>2020-05-08T18:35:12Z</time>
      </trkpt>
      <trkpt lat="46.03259" lon="6.24149">
        <ele>749.49</ele>
        <time>2020-05-08T18:35:13Z</time>
      </trkpt>
      <trkpt lat="46.03134" lon="6.23997">
        <ele>746.12</ele>
        <time>2020-05-08T18:35:19Z</time>
      </trkpt>
      <trkpt lat="46.03018" lon="6.23879">
        <ele>743.72</ele>
        <time>2020-05-08T18:35:24Z</time>
      </trkpt>
      <trkpt lat="46.02991" lon="6.23864">
        <ele>743.24</ele>
        <time>2020-05-08T18:35:25Z</time>
      </trkpt>
      <trkpt lat="46.0279" lon="6.23784">
        <ele>738.91</ele>
        <time>2020-05-08T18:35:32Z</time>
      </trkpt>
      <trkpt lat="46.02583" lon="6.2374">
        <ele>728.34</ele>
        <time>2020-05-08T18:35:40Z</time>
      </trkpt>
      <trkpt lat="46.0256" lon="6.23728">
        <ele>726.89</ele>
        <time>2020-05-08T18:35:41Z</time>
      </trkpt>
      <trkpt lat="46.02538" lon="6.23711">
        <ele>725.93</ele>
        <time>2020-05-08T18:35:42Z</time>
      </trkpt>
      <trkpt lat="46.02519" lon="6.23689">
        <ele>725.45</ele>
        <time>2020-05-08T18:35:43Z</time>
      </trkpt>
      <trkpt lat="46.02502" lon="6.23665">
        <ele>724.97</ele>
        <time>2020-05-08T18:35:44Z</time>
      </trkpt>
      <trkpt lat="46.02486" lon="6.23639">
        <ele>724.01</ele>
        <time>2020-05-08T18:35:45Z</time>
      </trkpt>
      <trkpt lat="46.0247" lon="6.23612">
        <ele>723.53</ele>
        <time>2020-05-08T18:35:46Z</time>
      </trkpt>
      <trkpt lat="46.02456" lon="6.23583">
        <ele>722.57</ele>
        <time>2020-05-08T18:35:47Z</time>
      </trkpt>
      <trkpt lat="46.02415" lon="6.23499">
        <ele>720.16</ele>
        <time>2020-05-08T18:35:50Z</time>
      </trkpt>
      <trkpt lat="46.02399" lon="6.23475">
        <ele>719.2</ele>
        <time>2020-05-08T18:35:51Z</time>
      </trkpt>
      <trkpt lat="46.02379" lon="6.23458">
        <ele>718.24</ele>
        <time>2020-05-08T18:35:52Z</time>
      </trkpt>
      <trkpt lat="46.02361" lon="6.23441">
        <ele>716.8</ele>
        <time>2020-05-08T18:35:53Z</time>
      </trkpt>
      <trkpt lat="46.02343" lon="6.23425">
        <ele>715.84</ele>
        <time>2020-05-08T18:35:54Z</time>
      </trkpt>
      <trkpt lat="46.02293" lon="6.2338">
        <ele>711.99</ele>
        <time>2020-05-08T18:35:57Z</time>
      </trkpt>
      <trkpt lat="46.0228" lon="6.23361">
        <ele>710.55</ele>
        <time>2020-05-08T18:35:58Z</time>
      </trkpt>
      <trkpt lat="46.02268" lon="6.23341">
        <ele>709.59</ele>
        <time>2020-05-08T18:35:59Z</time>
      </trkpt>
      <trkpt lat="46.02169" lon="6.23137">
        <ele>704.3</ele>
        <time>2020-05-08T18:36:08Z</time>
      </trkpt>
      <trkpt lat="46.02141" lon="6.23093">
        <ele>703.34</ele>
        <time>2020-05-08T18:36:10Z</time>
      </trkpt>
      <trkpt lat="46.02125" lon="6.2307">
        <ele>702.86</ele>
        <time>2020-05-08T18:36:11Z</time>
      </trkpt>
      <trkpt lat="46.02089" lon="6.23024">
        <ele>702.86</ele>
        <time>2020-05-08T18:36:13Z</time>
      </trkpt>
      <trkpt lat="46.02072" lon="6.22996">
        <ele>702.86</ele>
        <time>2020-05-08T18:36:14Z</time>
      </trkpt>
      <trkpt lat="46.02059" lon="6.22964">
        <ele>702.38</ele>
        <time>2020-05-08T18:36:15Z</time>
      </trkpt>
      <trkpt lat="46.02047" lon="6.22927">
        <ele>701.9</ele>
        <time>2020-05-08T18:36:16Z</time>
      </trkpt>
      <trkpt lat="46.02039" lon="6.22887">
        <ele>701.9</ele>
        <time>2020-05-08T18:36:17Z</time>
      </trkpt>
      <trkpt lat="46.02032" lon="6.22845">
        <ele>700.94</ele>
        <time>2020-05-08T18:36:18Z</time>
      </trkpt>
      <trkpt lat="46.02025" lon="6.228">
        <ele>700.46</ele>
        <time>2020-05-08T18:36:19Z</time>
      </trkpt>
      <trkpt lat="46.01987" lon="6.22532">
        <ele>697.57</ele>
        <time>2020-05-08T18:36:24Z</time>
      </trkpt>
      <trkpt lat="46.01932" lon="6.22177">
        <ele>690.36</ele>
        <time>2020-05-08T18:36:30Z</time>
      </trkpt>
      <trkpt lat="46.01876" lon="6.21947">
        <ele>686.04</ele>
        <time>2020-05-08T18:36:35Z</time>
      </trkpt>
      <trkpt lat="46.01775" lon="6.2169">
        <ele>683.63</ele>
        <time>2020-05-08T18:36:42Z</time>
      </trkpt>
      <trkpt lat="46.01681" lon="6.21491">
        <ele>682.67</ele>
        <time>2020-05-08T18:36:48Z</time>
      </trkpt>
      <trkpt lat="46.01658" lon="6.21464">
        <ele>682.19</ele>
        <time>2020-05-08T18:36:49Z</time>
      </trkpt>
      <trkpt lat="46.01476" lon="6.21283">
        <ele>680.27</ele>
        <time>2020-05-08T18:36:56Z</time>
      </trkpt>
      <trkpt lat="46.01427" lon="6.21229">
        <ele>679.79</ele>
        <time>2020-05-08T18:36:58Z</time>
      </trkpt>
      <trkpt lat="46.01405" lon="6.21197">
        <ele>679.31</ele>
        <time>2020-05-08T18:36:59Z</time>
      </trkpt>
      <trkpt lat="46.01272" lon="6.21005">
        <ele>674.98</ele>
        <time>2020-05-08T18:37:05Z</time>
      </trkpt>
      <trkpt lat="46.01074" lon="6.20765">
        <ele>667.77</ele>
        <time>2020-05-08T18:37:13Z</time>
      </trkpt>
      <trkpt lat="46.00938" lon="6.20604">
        <ele>662.97</ele>
        <time>2020-05-08T18:37:20Z</time>
      </trkpt>
      <trkpt lat="46.00893" lon="6.20547">
        <ele>661.52</ele>
        <time>2020-05-08T18:37:23Z</time>
      </trkpt>
      <trkpt lat="46.00881" lon="6.20528">
        <ele>661.04</ele>
        <time>2020-05-08T18:37:24Z</time>
      </trkpt>
      <trkpt lat="46.00872" lon="6.20503">
        <ele>660.08</ele>
        <time>2020-05-08T18:37:25Z</time>
      </trkpt>
      <trkpt lat="46.00863" lon="6.20479">
        <ele>659.6</ele>
        <time>2020-05-08T18:37:26Z</time>
      </trkpt>
      <trkpt lat="46.00854" lon="6.20453">
        <ele>659.6</ele>
        <time>2020-05-08T18:37:27Z</time>
      </trkpt>
      <trkpt lat="46.00847" lon="6.20424">
        <ele>659.12</ele>
        <time>2020-05-08T18:37:28Z</time>
      </trkpt>
      <trkpt lat="46.00781" lon="6.20187">
        <ele>654.31</ele>
        <time>2020-05-08T18:37:35Z</time>
      </trkpt>
      <trkpt lat="46.00733" lon="6.19977">
        <ele>645.66</ele>
        <time>2020-05-08T18:37:40Z</time>
      </trkpt>
      <trkpt lat="46.00676" lon="6.19734">
        <ele>635.09</ele>
        <time>2020-05-08T18:37:46Z</time>
      </trkpt>
      <trkpt lat="46.00612" lon="6.19571">
        <ele>627.4</ele>
        <time>2020-05-08T18:37:51Z</time>
      </trkpt>
      <trkpt lat="46.00599" lon="6.19549">
        <ele>625.96</ele>
        <time>2020-05-08T18:37:52Z</time>
      </trkpt>
      <trkpt lat="46.00584" lon="6.19529">
        <ele>624.51</ele>
        <time>2020-05-08T18:37:53Z</time>
      </trkpt>
      <trkpt lat="46.00567" lon="6.19511">
        <ele>623.07</ele>
        <time>2020-05-08T18:37:54Z</time>
      </trkpt>
      <trkpt lat="46.0055" lon="6.19495">
        <ele>621.63</ele>
        <time>2020-05-08T18:37:55Z</time>
      </trkpt>
      <trkpt lat="46.00488" lon="6.19405">
        <ele>613.94</ele>
        <time>2020-05-08T18:38:00Z</time>
      </trkpt>
      <trkpt lat="46.00482" lon="6.19387">
        <ele>612.98</ele>
        <time>2020-05-08T18:38:01Z</time>
      </trkpt>
      <trkpt lat="46.0048" lon="6.19368">
        <ele>611.54</ele>
        <time>2020-05-08T18:38:02Z</time>
      </trkpt>
      <trkpt lat="46.00483" lon="6.19349">
        <ele>610.57</ele>
        <time>2020-05-08T18:38:03Z</time>
      </trkpt>
      <trkpt lat="46.00491" lon="6.19333">
        <ele>609.13</ele>
        <time>2020-05-08T18:38:04Z</time>
      </trkpt>
      <trkpt lat="46.005" lon="6.19318">
        <ele>607.69</ele>
        <time>2020-05-08T18:38:05Z</time>
      </trkpt>
      <trkpt lat="46.00513" lon="6.1931">
        <ele>606.25</ele>
        <time>2020-05-08T18:38:06Z</time>
      </trkpt>
      <trkpt lat="46.00528" lon="6.19308">
        <ele>604.81</ele>
        <time>2020-05-08T18:38:07Z</time>
      </trkpt>
      <trkpt lat="46.00542" lon="6.19315">
        <ele>603.36</ele>
        <time>2020-05-08T18:38:08Z</time>
      </trkpt>
      <trkpt lat="46.00556" lon="6.19326">
        <ele>601.92</ele>
        <time>2020-05-08T18:38:09Z</time>
      </trkpt>
      <trkpt lat="46.00569" lon="6.19342">
        <ele>600.96</ele>
        <time>2020-05-08T18:38:10Z</time>
      </trkpt>
      <trkpt lat="46.00585" lon="6.19362">
        <ele>599.52</ele>
        <time>2020-05-08T18:38:11Z</time>
      </trkpt>
      <trkpt lat="46.00613" lon="6.19419">
        <ele>597.12</ele>
        <time>2020-05-08T18:38:13Z</time>
      </trkpt>
      <trkpt lat="46.00661" lon="6.19522">
        <ele>593.27</ele>
        <time>2020-05-08T18:38:18Z</time>
      </trkpt>
      <trkpt lat="46.00667" lon="6.19535">
        <ele>592.79</ele>
        <time>2020-05-08T18:38:19Z</time>
      </trkpt>
      <trkpt lat="46.00674" lon="6.19538">
        <ele>592.79</ele>
        <time>2020-05-08T18:38:20Z</time>
      </trkpt>
      <trkpt lat="46.00682" lon="6.19541">
        <ele>592.79</ele>
        <time>2020-05-08T18:38:21Z</time>
      </trkpt>
      <trkpt lat="46.0069" lon="6.19534">
        <ele>592.31</ele>
        <time>2020-05-08T18:38:22Z</time>
      </trkpt>
      <trkpt lat="46.00693" lon="6.19521">
        <ele>592.31</ele>
        <time>2020-05-08T18:38:23Z</time>
      </trkpt>
      <trkpt lat="46.00694" lon="6.19508">
        <ele>592.31</ele>
        <time>2020-05-08T18:38:24Z</time>
      </trkpt>
      <trkpt lat="46.00689" lon="6.19491">
        <ele>592.31</ele>
        <time>2020-05-08T18:38:25Z</time>
      </trkpt>
      <trkpt lat="46.00682" lon="6.19473">
        <ele>591.83</ele>
        <time>2020-05-08T18:38:26Z</time>
      </trkpt>
      <trkpt lat="46.00673" lon="6.19451">
        <ele>591.83</ele>
        <time>2020-05-08T18:38:27Z</time>
      </trkpt>
      <trkpt lat="46.00616" lon="6.1929">
        <ele>586.54</ele>
        <time>2020-05-08T18:38:32Z</time>
      </trkpt>
      <trkpt lat="46.00523" lon="6.1905">
        <ele>572.12</ele>
        <time>2020-05-08T18:38:39Z</time>
      </trkpt>
      <trkpt lat="46.00467" lon="6.18951">
        <ele>564.43</ele>
        <time>2020-05-08T18:38:43Z</time>
      </trkpt>
      <trkpt lat="46.00453" lon="6.18932">
        <ele>562.99</ele>
        <time>2020-05-08T18:38:44Z</time>
      </trkpt>
      <trkpt lat="46.00439" lon="6.18914">
        <ele>561.55</ele>
        <time>2020-05-08T18:38:45Z</time>
      </trkpt>
      <trkpt lat="46.00403" lon="6.18878">
        <ele>557.22</ele>
        <time>2020-05-08T18:38:48Z</time>
      </trkpt>
      <trkpt lat="46.00405" lon="6.18858">
        <ele>556.26</ele>
        <time>2020-05-08T18:38:49Z</time>
      </trkpt>
      <trkpt lat="46.00401" lon="6.18848">
        <ele>555.3</ele>
        <time>2020-05-08T18:38:50Z</time>
      </trkpt>
      <trkpt lat="46.00403" lon="6.18839">
        <ele>554.34</ele>
        <time>2020-05-08T18:38:51Z</time>
      </trkpt>
      <trkpt lat="46.00407" lon="6.18829">
        <ele>553.38</ele>
        <time>2020-05-08T18:38:52Z</time>
      </trkpt>
      <trkpt lat="46.00416" lon="6.18822">
        <ele>552.9</ele>
        <time>2020-05-08T18:38:53Z</time>
      </trkpt>
      <trkpt lat="46.00426" lon="6.18818">
        <ele>552.41</ele>
        <time>2020-05-08T18:38:54Z</time>
      </trkpt>
      <trkpt lat="46.00433" lon="6.18823">
        <ele>551.93</ele>
        <time>2020-05-08T18:38:55Z</time>
      </trkpt>
      <trkpt lat="46.0044" lon="6.18834">
        <ele>551.93</ele>
        <time>2020-05-08T18:38:56Z</time>
      </trkpt>
      <trkpt lat="46.00444" lon="6.18846">
        <ele>551.93</ele>
        <time>2020-05-08T18:38:57Z</time>
      </trkpt>
      <trkpt lat="46.00448" lon="6.18858">
        <ele>551.45</ele>
        <time>2020-05-08T18:38:58Z</time>
      </trkpt>
      <trkpt lat="46.00452" lon="6.18867">
        <ele>551.45</ele>
        <time>2020-05-08T18:38:59Z</time>
      </trkpt>
      <trkpt lat="46.00446" lon="6.18891">
        <ele>551.93</ele>
        <time>2020-05-08T18:39:00Z</time>
      </trkpt>
      <trkpt lat="46.00438" lon="6.18899">
        <ele>551.93</ele>
        <time>2020-05-08T18:39:01Z</time>
      </trkpt>
      <trkpt lat="46.00426" lon="6.18914">
        <ele>550.97</ele>
        <time>2020-05-08T18:39:02Z</time>
      </trkpt>
      <trkpt lat="46.00405" lon="6.18948">
        <ele>549.05</ele>
        <time>2020-05-08T18:39:04Z</time>
      </trkpt>
      <trkpt lat="46.00397" lon="6.1897">
        <ele>548.57</ele>
        <time>2020-05-08T18:39:05Z</time>
      </trkpt>
      <trkpt lat="46.00392" lon="6.18995">
        <ele>548.57</ele>
        <time>2020-05-08T18:39:06Z</time>
      </trkpt>
      <trkpt lat="46.00386" lon="6.19022">
        <ele>549.05</ele>
        <time>2020-05-08T18:39:07Z</time>
      </trkpt>
      <trkpt lat="46.00379" lon="6.19054">
        <ele>549.05</ele>
        <time>2020-05-08T18:39:08Z</time>
      </trkpt>
      <trkpt lat="46.00332" lon="6.19287">
        <ele>551.93</ele>
        <time>2020-05-08T18:39:14Z</time>
      </trkpt>
      <trkpt lat="46.00292" lon="6.19499">
        <ele>554.82</ele>
        <time>2020-05-08T18:39:20Z</time>
      </trkpt>
      <trkpt lat="46.0029" lon="6.19535">
        <ele>555.3</ele>
        <time>2020-05-08T18:39:21Z</time>
      </trkpt>
      <trkpt lat="46.0028" lon="6.19774">
        <ele>556.74</ele>
        <time>2020-05-08T18:39:28Z</time>
      </trkpt>
      <trkpt lat="46.00275" lon="6.19804">
        <ele>557.22</ele>
        <time>2020-05-08T18:39:29Z</time>
      </trkpt>
      <trkpt lat="46.00264" lon="6.19833">
        <ele>558.18</ele>
        <time>2020-05-08T18:39:30Z</time>
      </trkpt>
      <trkpt lat="46.00208" lon="6.19983">
        <ele>561.55</ele>
        <time>2020-05-08T18:39:36Z</time>
      </trkpt>
      <trkpt lat="46.00203" lon="6.19997">
        <ele>562.03</ele>
        <time>2020-05-08T18:39:37Z</time>
      </trkpt>
      <trkpt lat="46.00195" lon="6.20016">
        <ele>562.99</ele>
        <time>2020-05-08T18:39:39Z</time>
      </trkpt>
      <trkpt lat="46.00194" lon="6.2002">
        <ele>563.47</ele>
        <time>2020-05-08T18:39:40Z</time>
      </trkpt>
      <trkpt lat="46.00184" lon="6.20001">
        <ele>565.39</ele>
        <time>2020-05-08T18:39:46Z</time>
      </trkpt>
      <trkpt lat="46.00183" lon="6.19997">
        <ele>566.83</ele>
        <time>2020-05-08T18:39:55Z</time>
      </trkpt>
      <trkpt lat="46.00183" lon="6.19998">
        <ele>567.32</ele>
        <time>2020-05-08T18:40:03Z</time>
      </trkpt>
      <trkpt lat="46.00181" lon="6.2">
        <ele>567.8</ele>
        <time>2020-05-08T18:40:14Z</time>
      </trkpt>
      <trkpt lat="46.0018" lon="6.2">
        <ele>568.76</ele>
        <time>2020-05-08T18:40:48Z</time>
      </trkpt>
    </trkseg>
  </trk>
</gpx>